createdAt,value
2019-02-24T00:02:20.056Z,45.60
2019-02-24T00:04:52.666Z,45.40
2019-02-24T00:07:24.915Z,45.60
2019-02-24T00:09:57.314Z,45.00
2019-02-24T00:12:30.360Z,45.90
2019-02-24T00:15:02.896Z,45.50
2019-02-24T00:17:34.921Z,45.30
2019-02-24T00:20:07.094Z,45.40
2019-02-24T00:22:39.327Z,46.10
2019-02-24T00:25:11.917Z,46.00
2019-02-24T00:27:44.855Z,45.40
2019-02-24T00:30:17.566Z,45.40
2019-02-24T00:32:49.859Z,45.80
2019-02-24T00:35:21.973Z,45.60
2019-02-24T00:37:54.405Z,45.70
2019-02-24T00:40:27.317Z,45.80
2019-02-24T00:42:59.913Z,45.70
2019-02-24T00:45:32.118Z,45.40
2019-02-24T00:48:04.980Z,46.00
2019-02-24T00:50:37.675Z,45.40
2019-02-24T00:53:09.832Z,45.50
2019-02-24T00:55:42.477Z,45.70
2019-02-24T00:58:16.349Z,45.90
2019-02-24T01:00:48.927Z,46.10
2019-02-24T01:03:21.164Z,45.40
2019-02-24T01:05:53.853Z,45.70
2019-02-24T01:08:26.112Z,45.70
2019-02-24T01:10:58.474Z,46.40
2019-02-24T01:13:30.861Z,45.70
2019-02-24T01:16:02.954Z,45.40
2019-02-24T01:18:35.396Z,45.20
2019-02-24T01:21:07.904Z,45.40
2019-02-24T01:23:40.336Z,45.70
2019-02-24T01:26:14.064Z,45.90
2019-02-24T01:28:46.311Z,46.10
2019-02-24T01:31:19.028Z,45.80
2019-02-24T01:33:51.324Z,46.10
2019-02-24T01:36:23.914Z,45.40
2019-02-24T01:38:56.088Z,45.70
2019-02-24T01:41:28.878Z,45.90
2019-02-24T01:44:01.016Z,45.50
2019-02-24T01:46:33.334Z,45.60
2019-02-24T01:49:05.894Z,46.00
2019-02-24T01:51:37.893Z,46.20
2019-02-24T01:54:09.905Z,46.40
2019-02-24T01:56:42.906Z,45.90
2019-02-24T01:59:14.919Z,46.30
2019-02-24T02:01:47.073Z,45.80
2019-02-24T02:04:19.853Z,46.30
2019-02-24T02:06:52.916Z,46.10
2019-02-24T02:09:24.853Z,46.70
2019-02-24T02:11:57.431Z,46.30
2019-02-24T02:14:29.870Z,45.30
2019-02-24T02:17:01.894Z,45.30
2019-02-24T02:19:34.062Z,45.40
2019-02-24T02:22:06.574Z,46.30
2019-02-24T02:24:39.319Z,46.20
2019-02-24T02:27:12.012Z,46.20
2019-02-24T02:29:44.325Z,46.10
2019-02-24T02:32:16.861Z,46.40
2019-02-24T02:34:49.296Z,47.10
2019-02-24T02:37:21.902Z,46.70
2019-02-24T02:39:54.026Z,46.00
2019-02-24T02:42:26.860Z,46.20
2019-02-24T02:44:59.588Z,46.00
2019-02-24T02:50:02.724Z,45.70
2019-02-24T02:52:33.983Z,46.40
2019-02-24T02:55:06.915Z,46.90
2019-02-24T02:57:38.890Z,46.60
2019-02-24T03:00:36.344Z,46.20
2019-02-24T03:03:08.895Z,46.60
2019-02-24T03:05:44.550Z,46.30
2019-02-24T03:08:17.331Z,46.30
2019-02-24T03:10:50.337Z,46.40
2019-02-24T03:13:22.912Z,46.40
2019-02-24T03:15:54.947Z,46.50
2019-02-24T03:18:26.923Z,46.30
2019-02-24T03:20:59.339Z,46.10
2019-02-24T03:23:31.840Z,46.30
2019-02-24T03:26:03.929Z,46.30
2019-02-24T03:28:36.346Z,45.90
2019-02-24T03:31:08.973Z,46.10
2019-02-24T03:33:44.750Z,46.40
2019-02-24T03:36:16.121Z,46.20
2019-02-24T03:38:48.886Z,46.30
2019-02-24T03:41:20.948Z,46.30
2019-02-24T03:43:53.891Z,46.20
2019-02-24T03:46:26.895Z,46.30
2019-02-24T03:48:59.550Z,45.80
2019-02-24T03:51:31.904Z,45.90
2019-02-24T03:54:04.065Z,46.10
2019-02-24T03:56:36.327Z,46.20
2019-02-24T03:59:15.165Z,45.90
2019-02-24T04:01:43.335Z,46.10
2019-02-24T04:04:15.874Z,45.90
2019-02-24T04:06:49.041Z,45.50
2019-02-24T04:09:21.345Z,45.60
2019-02-24T04:11:53.924Z,46.30
2019-02-24T04:14:26.349Z,46.00
2019-02-24T04:16:58.855Z,46.00
2019-02-24T04:19:31.882Z,46.50
2019-02-24T04:22:03.911Z,46.60
2019-02-24T04:24:36.362Z,46.50
2019-02-24T04:27:08.872Z,46.00
2019-02-24T04:29:40.909Z,45.90
2019-02-24T04:32:13.396Z,46.20
2019-02-24T04:34:45.855Z,46.20
2019-02-24T04:37:18.455Z,46.00
2019-02-24T04:39:50.896Z,45.80
2019-02-24T04:42:22.872Z,45.70
2019-02-24T04:44:55.631Z,46.10
2019-02-24T04:47:27.800Z,45.80
2019-02-24T04:49:59.929Z,45.50
2019-02-24T04:52:32.101Z,46.50
2019-02-24T04:55:04.385Z,46.30
2019-02-24T04:57:37.091Z,45.70
2019-02-24T05:00:10.337Z,46.00
2019-02-24T05:02:42.907Z,46.30
2019-02-24T05:05:14.854Z,46.70
2019-02-24T05:07:46.938Z,45.80
2019-02-24T05:10:19.060Z,46.40
2019-02-24T05:12:51.330Z,46.30
2019-02-24T05:15:23.894Z,46.30
2019-02-24T05:17:56.080Z,46.70
2019-02-24T05:20:28.354Z,46.20
2019-02-24T05:23:00.881Z,45.90
2019-02-24T05:25:33.359Z,46.20
2019-02-24T05:28:05.915Z,46.20
2019-02-24T05:30:37.919Z,46.10
2019-02-24T05:33:09.843Z,46.30
2019-02-24T05:35:41.896Z,46.10
2019-02-24T05:38:14.336Z,46.40
2019-02-24T05:40:46.893Z,46.20
2019-02-24T05:43:18.890Z,46.70
2019-02-24T05:45:51.364Z,46.50
2019-02-24T05:48:24.101Z,46.50
2019-02-24T05:50:56.361Z,46.70
2019-02-24T05:53:28.887Z,46.50
2019-02-24T05:56:01.329Z,46.60
2019-02-24T05:58:33.832Z,46.30
2019-02-24T06:01:05.992Z,46.30
2019-02-24T06:03:38.902Z,43.60
2019-02-24T06:06:11.117Z,40.30
2019-02-24T06:08:44.011Z,38.60
2019-02-24T06:11:16.568Z,37.20
2019-02-24T06:13:48.931Z,37.00
2019-02-24T06:16:21.507Z,36.40
2019-02-24T06:18:54.330Z,36.10
2019-02-24T06:21:26.845Z,35.50
2019-02-24T06:23:59.340Z,34.90
2019-02-24T06:26:31.791Z,34.60
2019-02-24T06:29:03.844Z,33.80
2019-02-24T06:31:35.904Z,33.80
2019-02-24T06:34:08.333Z,33.50
2019-02-24T06:36:40.838Z,33.70
2019-02-24T06:39:13.882Z,33.00
2019-02-24T06:41:45.905Z,33.30
2019-02-24T06:44:18.269Z,33.30
2019-02-24T06:46:50.877Z,33.70
2019-02-24T06:49:23.345Z,33.00
2019-02-24T06:51:55.896Z,33.40
2019-02-24T06:54:28.464Z,33.10
2019-02-24T06:57:01.285Z,33.50
2019-02-24T06:59:33.815Z,33.40
2019-02-24T07:02:06.413Z,33.60
2019-02-24T07:04:38.890Z,34.10
2019-02-24T07:07:11.962Z,36.10
2019-02-24T07:09:44.482Z,36.70
2019-02-24T07:12:16.933Z,37.90
2019-02-24T07:14:52.887Z,37.60
2019-02-24T07:17:25.069Z,39.00
2019-02-24T07:19:57.883Z,38.90
2019-02-24T07:22:29.893Z,42.40
2019-02-24T07:25:02.343Z,42.60
2019-02-24T07:27:34.828Z,42.30
2019-02-24T07:30:07.463Z,41.90
2019-02-24T07:32:39.836Z,42.30
2019-02-24T07:35:12.891Z,42.40
2019-02-24T07:37:46.397Z,42.60
2019-02-24T07:40:19.005Z,43.30
2019-02-24T07:42:51.329Z,43.60
2019-02-24T07:45:24.283Z,43.30
2019-02-24T07:47:57.378Z,43.00
2019-02-24T07:50:29.907Z,43.60
2019-02-24T07:53:02.005Z,43.50
2019-02-24T07:55:34.333Z,43.50
2019-02-24T07:58:06.874Z,43.60
2019-02-24T08:00:39.060Z,44.30
2019-02-24T08:03:11.875Z,43.90
2019-02-24T08:05:44.334Z,43.70
2019-02-24T08:08:16.922Z,43.70
2019-02-24T08:10:49.322Z,44.00
2019-02-24T08:13:22.596Z,43.90
2019-02-24T08:15:54.940Z,44.00
2019-02-24T08:18:29.632Z,43.40
2019-02-24T08:21:01.907Z,43.90
2019-02-24T08:23:36.322Z,43.40
2019-02-24T08:26:09.070Z,43.70
2019-02-24T08:28:41.324Z,43.90
2019-02-24T08:31:13.852Z,44.00
2019-02-24T08:33:45.876Z,44.20
2019-02-24T08:36:18.098Z,43.50
2019-02-24T08:38:50.866Z,43.30
2019-02-24T08:41:23.103Z,43.90
2019-02-24T08:43:55.644Z,44.00
2019-02-24T08:46:28.474Z,43.50
2019-02-24T08:49:00.866Z,43.20
2019-02-24T08:51:32.877Z,43.20
2019-02-24T08:54:04.900Z,44.20
2019-02-24T08:56:36.841Z,43.80
2019-02-24T08:59:09.318Z,43.90
2019-02-24T09:01:41.906Z,44.40
2019-02-24T09:04:13.904Z,44.60
2019-02-24T09:06:46.116Z,44.60
2019-02-24T09:09:18.884Z,44.00
2019-02-24T09:11:51.416Z,44.00
2019-02-24T09:14:23.870Z,44.20
2019-02-24T09:16:56.370Z,43.60
2019-02-24T09:19:28.983Z,44.40
2019-02-24T09:22:01.549Z,43.80
2019-02-24T09:24:33.835Z,43.80
2019-02-24T09:27:05.869Z,43.80
2019-02-24T09:29:37.915Z,44.30
2019-02-24T09:32:09.868Z,43.80
2019-02-24T09:34:42.316Z,43.90
2019-02-24T09:37:15.324Z,43.50
2019-02-24T09:39:47.837Z,43.80
2019-02-24T09:42:20.334Z,43.80
2019-02-24T09:44:52.909Z,43.90
2019-02-24T09:47:25.689Z,44.10
2019-02-24T09:49:56.959Z,43.80
2019-02-24T09:52:29.865Z,43.80
2019-02-24T09:55:02.098Z,44.10
2019-02-24T09:57:34.604Z,43.50
2019-02-24T10:00:07.896Z,43.00
2019-02-24T10:02:39.988Z,43.80
2019-02-24T10:05:12.334Z,44.80
2019-02-24T10:07:45.038Z,44.30
2019-02-24T10:10:17.323Z,44.70
2019-02-24T14:49:07.270Z,46.10
2019-02-24T14:51:39.103Z,42.90
2019-02-24T14:54:10.786Z,41.80
2019-02-24T14:56:42.641Z,41.40
2019-02-24T14:59:14.358Z,38.30
2019-02-24T15:01:46.309Z,39.00
2019-02-24T15:04:17.974Z,38.80
2019-02-24T15:06:49.869Z,39.40
2019-02-24T15:09:21.654Z,39.10
2019-02-24T15:11:53.449Z,39.20
2019-02-24T15:14:25.308Z,38.60
2019-02-24T15:16:57.016Z,38.30
2019-02-24T15:19:28.773Z,37.30
2019-02-24T15:21:59.491Z,38.10
2019-02-24T15:24:31.309Z,38.30
2019-02-24T15:27:02.882Z,38.50
2019-02-24T15:29:35.844Z,39.10
2019-02-24T15:32:07.811Z,38.50
2019-02-24T15:34:39.762Z,38.70
2019-02-24T15:37:10.683Z,38.20
2019-02-24T15:39:42.364Z,38.60
2019-02-24T15:42:14.661Z,38.10
2019-02-24T15:44:46.420Z,38.60
2019-02-24T15:47:18.493Z,38.20
2019-02-24T15:49:50.311Z,38.40
2019-02-24T15:52:21.877Z,38.90
2019-02-24T15:54:53.749Z,38.60
2019-02-24T15:57:24.615Z,39.00
2019-02-24T15:59:56.339Z,39.00
2019-02-24T16:02:28.053Z,41.00
2019-02-24T16:04:59.757Z,42.40
2019-02-24T16:07:30.770Z,41.90
2019-02-24T16:10:02.503Z,42.40
2019-02-24T16:12:34.349Z,42.20
2019-02-24T16:15:07.781Z,42.40
2019-02-24T16:17:38.627Z,42.40
2019-02-24T16:20:15.901Z,42.80
2019-02-24T16:22:47.436Z,41.70
2019-02-24T16:25:19.615Z,41.70
2019-02-24T16:27:51.629Z,42.00
2019-02-24T16:30:23.334Z,41.70
2019-02-24T16:32:55.067Z,41.70
2019-02-24T16:35:26.754Z,41.90
2019-02-24T16:37:57.520Z,42.30
2019-02-24T16:40:29.309Z,41.90
2019-02-24T16:43:01.414Z,42.30
2019-02-24T16:45:33.030Z,42.40
2019-02-24T16:48:04.775Z,42.00
2019-02-24T16:50:35.768Z,41.90
2019-02-24T16:53:07.758Z,42.20
2019-02-24T16:55:38.456Z,42.10
2019-02-24T16:58:10.312Z,42.30
2019-02-24T17:00:42.421Z,42.00
2019-02-24T17:03:19.954Z,42.40
2019-02-24T17:05:48.300Z,43.00
2019-02-24T17:08:20.084Z,43.30
2019-02-24T17:10:51.762Z,42.30
2019-02-24T17:13:22.460Z,42.60
2019-02-24T17:15:54.300Z,42.20
2019-02-24T17:18:25.857Z,42.70
2019-02-24T17:20:57.770Z,42.50
2019-02-24T17:23:28.492Z,42.50
2019-02-24T17:26:00.314Z,42.30
2019-02-24T17:28:32.315Z,42.40
2019-02-24T17:31:07.099Z,42.50
2019-02-24T17:33:39.299Z,42.50
2019-02-24T17:36:11.062Z,42.70
2019-02-24T17:38:42.973Z,42.50
2019-02-24T17:41:15.301Z,42.80
2019-02-24T17:43:47.296Z,42.90
2019-02-24T17:46:18.877Z,42.50
2019-02-24T17:48:50.765Z,42.50
2019-02-24T17:51:22.716Z,43.20
2019-02-24T17:53:53.478Z,42.80
2019-02-24T17:56:25.309Z,42.60
2019-02-24T17:58:57.301Z,41.10
2019-02-24T18:01:28.870Z,38.10
2019-02-24T18:04:00.364Z,37.20
2019-02-24T18:06:32.057Z,36.50
2019-02-24T18:09:04.294Z,36.40
2019-02-24T18:11:36.301Z,36.00
2019-02-24T18:14:07.862Z,35.00
2019-02-24T18:16:40.118Z,34.70
2019-02-24T18:19:11.798Z,34.80
2019-02-24T18:21:43.410Z,35.00
2019-02-24T18:24:15.418Z,34.50
2019-02-24T18:26:48.765Z,34.30
2019-02-24T18:29:19.480Z,34.30
2019-02-24T18:31:51.304Z,34.90
2019-02-24T18:34:23.803Z,34.20
2019-02-24T18:36:55.377Z,34.30
2019-02-24T18:39:27.307Z,34.30
2019-02-24T18:41:58.849Z,34.50
2019-02-24T18:44:31.547Z,34.70
2019-02-24T18:47:03.353Z,34.70
2019-02-24T18:49:36.053Z,34.40
2019-02-24T18:52:07.782Z,36.10
2019-02-24T18:54:38.649Z,36.80
2019-02-24T18:57:10.362Z,39.40
2019-02-24T18:59:42.057Z,37.70
2019-02-24T19:02:14.741Z,39.00
2019-02-24T19:04:46.230Z,40.90
2019-02-24T19:07:18.349Z,42.50
2019-02-24T19:09:50.017Z,41.30
2019-02-24T19:12:21.765Z,41.90
2019-02-24T19:14:53.752Z,41.80
2019-02-24T19:17:25.878Z,42.20
2019-02-24T19:19:57.857Z,42.50
2019-02-24T19:22:29.741Z,42.90
2019-02-24T19:25:01.258Z,42.60
2019-02-24T19:27:33.057Z,42.80
2019-02-24T19:30:04.768Z,43.00
2019-02-24T19:32:35.575Z,43.00
2019-02-24T19:35:08.407Z,42.90
2019-02-24T19:37:54.857Z,42.50
2019-02-24T19:40:26.418Z,43.10
2019-02-24T19:42:58.297Z,43.20
2019-02-24T19:45:30.263Z,43.40
2019-02-24T19:48:02.301Z,43.40
2019-02-24T19:50:33.852Z,43.40
2019-02-24T19:53:05.899Z,43.20
2019-02-24T19:55:37.773Z,43.30
2019-02-24T19:58:09.375Z,43.20
2019-02-24T20:00:41.582Z,43.10
2019-02-24T20:03:13.379Z,43.50
2019-02-24T20:05:47.311Z,43.20
2019-02-24T20:08:19.066Z,43.30
2019-02-24T20:10:50.747Z,43.90
2019-02-24T20:13:21.522Z,43.70
2019-02-24T20:15:53.634Z,43.50
2019-02-24T20:18:31.908Z,43.70
2019-02-24T20:21:04.629Z,43.10
2019-02-24T20:23:36.798Z,43.20
2019-02-24T20:26:08.752Z,43.10
2019-02-24T20:28:40.122Z,43.50
2019-02-24T20:34:15.293Z,43.40
2019-02-24T20:36:46.881Z,44.00
2019-02-24T20:39:19.308Z,43.70
2019-02-24T20:41:51.299Z,43.30
2019-02-24T20:44:24.014Z,43.40
2019-02-24T20:46:55.789Z,43.50
2019-02-24T20:49:27.806Z,43.70
2019-02-24T20:51:59.855Z,43.70
2019-02-24T20:54:31.823Z,43.70
2019-02-24T20:57:05.686Z,44.00
2019-02-24T20:59:37.550Z,43.80
2019-02-24T21:02:09.416Z,44.00
2019-02-24T21:04:41.753Z,43.40
2019-02-24T21:07:12.595Z,43.80
2019-02-24T21:09:43.439Z,43.60
2019-02-24T21:12:15.423Z,43.50
2019-02-24T21:14:47.762Z,43.60
2019-02-24T21:17:19.262Z,43.60
2019-02-24T21:19:51.024Z,43.90
2019-02-24T21:22:22.760Z,44.50
2019-02-24T21:24:54.589Z,44.30
2019-02-24T21:27:26.423Z,43.90
2019-02-24T21:29:58.301Z,44.90
2019-02-24T21:32:29.844Z,44.10
2019-02-24T21:35:01.594Z,44.40
2019-02-24T21:37:33.651Z,44.70
2019-02-24T21:40:09.303Z,44.10
2019-02-24T21:42:44.448Z,44.10
2019-02-24T21:45:19.489Z,44.70
2019-02-24T21:47:51.304Z,45.20
2019-02-24T21:50:22.898Z,44.30
2019-02-24T21:52:55.306Z,45.50
2019-02-24T21:55:27.031Z,44.80
2019-02-24T21:57:58.785Z,44.70
2019-02-24T22:00:30.762Z,44.70
2019-02-24T22:03:01.727Z,45.20
2019-02-24T22:05:32.616Z,44.80
2019-02-24T22:08:04.410Z,44.50
2019-02-24T22:10:36.316Z,44.10
2019-02-24T22:13:07.866Z,44.60
2019-02-24T22:15:39.853Z,44.50
2019-02-24T22:18:11.586Z,44.40
2019-02-24T22:20:43.315Z,44.60
2019-02-24T22:23:15.316Z,44.80
2019-02-24T22:25:46.909Z,44.90
2019-02-24T22:28:18.412Z,44.40
2019-02-24T22:30:50.078Z,44.80
2019-02-24T22:33:21.787Z,44.50
2019-02-24T22:35:52.465Z,44.20
2019-02-24T22:38:24.318Z,44.80
2019-02-24T22:40:55.840Z,44.50
2019-02-24T22:43:27.702Z,44.70
2019-02-24T22:45:58.493Z,44.80
2019-02-24T22:48:30.795Z,44.70
2019-02-24T22:51:02.557Z,45.20
2019-02-24T22:53:34.317Z,45.30
2019-02-24T22:56:05.831Z,45.60
2019-02-24T22:58:38.302Z,45.00
2019-02-24T23:01:21.374Z,45.40
2019-02-24T23:03:53.040Z,45.80
2019-02-24T23:06:24.771Z,45.80
2019-02-24T23:08:55.512Z,45.90
2019-02-24T23:11:27.425Z,46.00
2019-02-24T23:13:59.040Z,45.40
2019-02-24T23:16:30.780Z,45.80
2019-02-24T23:19:01.484Z,45.90
2019-02-24T23:21:33.307Z,45.90
2019-02-24T23:24:04.878Z,46.50
2019-02-24T23:26:37.310Z,46.40
2019-02-24T23:29:08.890Z,46.10
2019-02-24T23:31:40.420Z,46.20
2019-02-24T23:34:12.012Z,46.10
2019-02-24T23:36:43.834Z,46.20
2019-02-24T23:39:17.823Z,46.30
2019-02-24T23:41:49.778Z,46.20
2019-02-24T23:44:21.744Z,45.80
2019-02-24T23:46:52.479Z,45.90
2019-02-24T23:49:24.609Z,45.80
2019-02-24T23:51:56.753Z,45.80
2019-02-24T23:54:27.454Z,45.90
2019-02-24T23:56:59.573Z,46.20
2019-02-24T23:59:31.321Z,46.10
